createdAt,value
2023-05-03T00:00:16.638Z,19.27
2023-05-03T00:05:39.674Z,17.59
2023-05-03T00:10:42.681Z,16.64
2023-05-03T00:15:45.611Z,15.93
2023-05-03T00:20:48.572Z,16.26
2023-05-03T00:25:57.449Z,18.53
2023-05-03T00:31:10.881Z,19.63
2023-05-03T00:36:15.389Z,18.41
2023-05-03T00:41:18.356Z,17.09
2023-05-03T00:46:21.434Z,16.27
2023-05-03T00:51:27.815Z,15.62
2023-05-03T00:56:33.004Z,15.10
2023-05-03T01:01:41.002Z,15.73
2023-05-03T01:06:52.621Z,18.07
2023-05-03T01:12:09.692Z,18.92
2023-05-03T01:17:14.618Z,17.93
2023-05-03T01:22:23.271Z,16.57
2023-05-03T01:27:26.233Z,15.71
2023-05-03T01:33:17.081Z,15.09
2023-05-03T01:38:22.144Z,15.87
2023-05-03T01:43:25.900Z,17.61
2023-05-03T01:48:28.834Z,18.29
2023-05-03T01:53:31.892Z,18.38
2023-05-03T01:58:34.876Z,16.83
2023-05-03T02:03:37.830Z,15.66
2023-05-03T02:08:40.880Z,14.89
2023-05-03T02:13:43.810Z,15.26
2023-05-03T02:18:49.049Z,17.48
2023-05-03T02:23:52.265Z,18.72
2023-05-03T02:28:56.983Z,18.05
2023-05-03T02:34:00.036Z,16.46
2023-05-03T02:39:03.324Z,15.52
2023-05-03T02:44:06.321Z,14.84
2023-05-03T02:49:09.991Z,15.25
2023-05-03T02:54:12.948Z,17.67
2023-05-03T02:59:15.969Z,18.35
2023-05-03T03:04:18.937Z,16.73
2023-05-03T03:09:21.923Z,15.40
2023-05-03T03:14:24.865Z,14.57
2023-05-03T03:19:27.861Z,13.97
2023-05-03T03:24:30.789Z,14.50
2023-05-03T03:29:36.033Z,16.87
2023-05-03T03:34:39.997Z,18.08
2023-05-03T03:39:42.979Z,17.17
2023-05-03T03:44:45.939Z,15.72
2023-05-03T03:49:48.861Z,14.84
2023-05-03T03:54:52.337Z,14.20
2023-05-03T03:59:55.151Z,13.68
2023-05-03T04:04:58.096Z,13.27
2023-05-03T04:10:01.429Z,13.96
2023-05-03T04:15:05.192Z,16.52
2023-05-03T04:20:13.913Z,17.19
2023-05-03T04:25:19.685Z,15.59
2023-05-03T04:30:22.774Z,14.60
2023-05-03T04:35:25.714Z,14.01
2023-05-03T04:40:29.301Z,13.80
2023-05-03T04:45:32.221Z,15.99
2023-05-03T04:50:35.209Z,17.09
2023-05-03T04:55:38.170Z,15.67
2023-05-03T05:00:45.633Z,14.60
2023-05-03T05:05:48.632Z,14.02
2023-05-03T05:10:51.624Z,15.72
2023-05-03T05:15:54.578Z,17.41
2023-05-03T05:20:57.518Z,16.30
2023-05-03T05:26:00.935Z,15.21
2023-05-03T05:31:03.797Z,14.58
2023-05-03T05:36:07.012Z,14.15
2023-05-03T05:41:10.139Z,13.81
2023-05-03T05:46:13.110Z,13.54
2023-05-03T05:51:16.177Z,15.07
2023-05-03T05:56:19.523Z,17.11
2023-05-03T06:01:22.440Z,16.12
2023-05-03T06:06:25.548Z,15.27
2023-05-03T06:11:29.642Z,14.79
2023-05-03T06:16:32.603Z,14.46
2023-05-03T06:21:35.618Z,14.18
2023-05-03T06:26:38.640Z,14.00
2023-05-03T06:31:42.182Z,13.90
2023-05-03T06:36:45.129Z,13.79
2023-05-03T06:41:48.094Z,14.72
2023-05-03T06:46:51.671Z,17.02
2023-05-03T06:51:54.677Z,18.16
2023-05-03T06:56:57.634Z,16.86
2023-05-03T07:02:00.617Z,15.77
2023-05-03T07:07:04.858Z,15.01
2023-05-03T07:12:08.293Z,14.52
2023-05-03T07:17:11.314Z,14.21
2023-05-03T07:22:14.576Z,13.96
2023-05-03T07:27:19.059Z,14.89
2023-05-03T07:32:22.493Z,16.76
2023-05-03T07:37:27.046Z,15.77
2023-05-03T07:42:29.994Z,15.10
2023-05-03T07:47:34.520Z,14.81
2023-05-03T07:52:38.486Z,14.67
2023-05-03T07:57:41.429Z,14.49
2023-05-03T08:02:44.688Z,14.34
2023-05-03T08:07:47.662Z,14.25
2023-05-03T08:12:51.319Z,14.24
2023-05-03T08:17:54.272Z,14.25
2023-05-03T08:22:57.275Z,14.25
2023-05-03T08:28:00.292Z,14.20
2023-05-03T08:33:03.648Z,14.20
2023-05-03T08:38:06.501Z,14.24
2023-05-03T08:43:10.344Z,14.31
2023-05-03T08:48:14.774Z,14.33
2023-05-03T08:53:17.958Z,14.34
2023-05-03T08:58:21.344Z,14.34
2023-05-03T09:03:24.505Z,14.35
2023-05-03T09:08:31.516Z,14.33
2023-05-03T09:13:34.580Z,14.30
2023-05-03T09:18:37.698Z,14.35
2023-05-03T09:23:40.981Z,14.43
2023-05-03T09:28:44.228Z,14.41
2023-05-03T09:33:47.560Z,14.33
2023-05-03T09:38:51.592Z,14.33
2023-05-03T09:43:56.262Z,14.40
2023-05-03T09:49:02.189Z,14.41
2023-05-03T09:54:05.487Z,14.49
2023-05-03T09:59:10.411Z,14.60
2023-05-03T10:04:19.840Z,14.69
2023-05-03T10:09:31.962Z,14.68
2023-05-03T10:14:35.951Z,14.63
2023-05-03T10:19:51.797Z,14.62
2023-05-03T10:24:57.681Z,14.64
2023-05-03T10:30:00.780Z,14.64
2023-05-03T10:35:14.470Z,14.63
2023-05-03T10:40:19.152Z,14.68
2023-05-03T10:45:29.366Z,14.70
2023-05-03T10:50:32.314Z,14.76
2023-05-03T10:55:36.007Z,14.76
2023-05-03T11:00:44.156Z,14.74
2023-05-03T11:05:49.941Z,14.75
2023-05-03T11:11:01.099Z,14.77
2023-05-03T11:16:06.037Z,14.75
2023-05-03T11:21:11.157Z,14.75
2023-05-03T11:26:14.354Z,14.73
2023-05-03T11:31:17.352Z,14.75
2023-05-03T11:36:20.606Z,14.74
2023-05-03T11:41:23.563Z,14.75
2023-05-03T11:46:31.957Z,14.90
2023-05-03T11:51:35.148Z,15.02
2023-05-03T11:56:38.156Z,15.05
2023-05-03T12:01:41.986Z,15.04
2023-05-03T12:06:53.093Z,15.03
2023-05-03T12:11:58.960Z,15.02
2023-05-03T12:17:03.257Z,15.02
2023-05-03T12:22:25.933Z,15.00
2023-05-03T12:27:31.358Z,14.98
2023-05-03T12:32:38.897Z,14.93
2023-05-03T12:37:43.859Z,14.87
2023-05-03T12:42:46.986Z,14.86
2023-05-03T12:47:50.299Z,14.87
2023-05-03T12:52:53.774Z,14.83
2023-05-03T12:58:18.111Z,14.76
2023-05-03T13:03:22.079Z,14.63
2023-05-03T13:08:33.517Z,14.67
2023-05-03T13:13:37.246Z,14.83
2023-05-03T13:18:40.172Z,15.01
2023-05-03T13:23:43.141Z,15.18
2023-05-03T13:28:46.563Z,15.20
2023-05-03T13:33:49.611Z,15.18
2023-05-03T13:38:53.680Z,15.14
2023-05-03T13:43:56.751Z,15.06
2023-05-03T13:49:00.249Z,15.05
2023-05-03T13:54:06.210Z,15.06
2023-05-03T13:59:11.967Z,15.06
2023-05-03T14:04:14.982Z,15.04
2023-05-03T14:09:17.978Z,15.02
2023-05-03T14:14:20.994Z,15.08
2023-05-03T14:19:23.987Z,15.19
2023-05-03T14:24:27.123Z,15.29
2023-05-03T14:29:30.089Z,15.42
2023-05-03T14:34:33.101Z,15.57
2023-05-03T14:39:36.660Z,15.66
2023-05-03T14:44:39.609Z,15.74
2023-05-03T14:49:42.584Z,15.74
2023-05-03T14:54:45.587Z,15.74
2023-05-03T14:59:48.677Z,15.79
2023-05-03T15:04:52.637Z,15.75
2023-05-03T15:09:55.660Z,15.63
2023-05-03T15:14:59.255Z,15.51
2023-05-03T15:20:02.486Z,15.40
2023-05-03T15:25:06.254Z,15.24
2023-05-03T15:30:12.279Z,15.06
2023-05-03T15:35:15.430Z,14.92
2023-05-03T15:40:23.723Z,14.82
2023-05-03T15:45:28.540Z,14.71
2023-05-03T15:50:31.611Z,14.67
2023-05-03T15:55:34.621Z,14.63
2023-05-03T16:00:38.107Z,14.56
2023-05-03T16:05:40.970Z,14.49
2023-05-03T16:10:43.934Z,14.44
2023-05-03T16:15:47.405Z,14.35
2023-05-03T16:20:50.696Z,14.28
2023-05-03T16:25:53.738Z,14.27
2023-05-03T16:30:56.775Z,14.27
2023-05-03T16:35:59.738Z,14.26
2023-05-03T16:41:03.301Z,14.27
2023-05-03T16:46:07.412Z,14.29
2023-05-03T16:51:10.428Z,14.29
2023-05-03T16:56:13.404Z,14.27
2023-05-03T17:01:16.465Z,14.27
2023-05-03T17:06:19.865Z,14.25
2023-05-03T17:11:22.861Z,14.22
2023-05-03T17:16:26.445Z,14.17
2023-05-03T17:21:29.500Z,14.10
2023-05-03T17:26:32.764Z,14.02
2023-05-03T17:31:35.860Z,13.93
2023-05-03T17:36:38.847Z,13.83
2023-05-03T17:41:41.819Z,13.75
2023-05-03T17:46:44.880Z,13.67
2023-05-03T17:51:48.151Z,13.57
2023-05-03T17:56:51.161Z,13.47
2023-05-03T18:01:54.178Z,13.38
2023-05-03T18:06:57.150Z,13.29
2023-05-03T18:12:01.657Z,13.20
2023-05-03T18:17:04.620Z,13.12
2023-05-03T18:22:08.234Z,13.04
2023-05-03T18:27:15.195Z,12.97
2023-05-03T18:32:18.151Z,12.90
2023-05-03T18:37:24.487Z,12.80
2023-05-03T18:42:27.872Z,12.69
2023-05-03T18:47:31.221Z,12.59
2023-05-03T18:52:34.195Z,12.51
2023-05-03T18:57:38.241Z,12.45
2023-05-03T19:02:41.178Z,12.39
2023-05-03T19:07:50.078Z,12.34
2023-05-03T19:12:53.642Z,12.28
2023-05-03T19:17:56.946Z,12.22
2023-05-03T19:23:00.001Z,12.13
2023-05-03T19:28:05.242Z,12.05
2023-05-03T19:33:08.238Z,11.97
2023-05-03T19:38:11.210Z,11.89
2023-05-03T19:43:14.741Z,11.80
2023-05-03T19:48:18.319Z,11.71
2023-05-03T19:53:21.505Z,11.63
2023-05-03T19:58:25.429Z,11.55
2023-05-03T20:03:28.838Z,11.48
2023-05-03T20:08:32.612Z,11.38
2023-05-03T20:13:35.645Z,11.29
2023-05-03T20:18:39.247Z,11.19
2023-05-03T20:23:42.093Z,11.09
2023-05-03T20:28:45.001Z,11.03
2023-05-03T20:33:47.976Z,10.97
2023-05-03T20:38:51.052Z,10.90
2023-05-03T20:43:55.056Z,10.83
2023-05-03T20:48:58.210Z,10.78
2023-05-03T20:54:01.188Z,10.73
2023-05-03T20:59:05.368Z,10.68
2023-05-03T21:04:09.215Z,10.61
2023-05-03T21:09:12.514Z,10.54
2023-05-03T21:14:18.623Z,10.51
2023-05-03T21:19:22.043Z,10.48
2023-05-03T21:24:25.775Z,10.46
2023-05-03T21:29:29.082Z,10.45
2023-05-03T21:34:32.173Z,10.44
2023-05-03T21:39:35.168Z,10.45
2023-05-03T21:44:38.153Z,10.47
2023-05-03T21:49:41.130Z,10.45
2023-05-03T21:54:44.223Z,10.43
2023-05-03T21:59:47.505Z,10.42
2023-05-03T22:04:51.063Z,10.38
2023-05-03T22:09:53.994Z,10.34
2023-05-03T22:14:57.440Z,10.31
2023-05-03T22:20:00.411Z,10.29
2023-05-03T22:25:03.579Z,10.26
2023-05-03T22:30:09.096Z,10.22
2023-05-03T22:35:12.127Z,10.19
2023-05-03T22:40:15.159Z,10.17
2023-05-03T22:45:18.223Z,10.14
2023-05-03T22:50:21.350Z,10.10
2023-05-03T22:55:24.269Z,10.07
2023-05-03T23:00:27.221Z,10.03
2023-05-03T23:05:30.490Z,10.00
2023-05-03T23:10:33.959Z,9.97
2023-05-03T23:15:38.829Z,9.95
2023-05-03T23:20:41.803Z,9.93
2023-05-03T23:25:44.755Z,9.93
2023-05-03T23:30:48.038Z,9.92
2023-05-03T23:35:51.328Z,10.85
2023-05-03T23:40:54.277Z,13.73
2023-05-03T23:45:57.311Z,13.99
2023-05-03T23:51:00.294Z,12.70
2023-05-03T23:56:03.885Z,12.01
